sensor_id;sensor_type;location;lat;lon;timestamp;pressure;altitude;pressure_sealevel;temperature;humidity
21956;BME280;11142;49.930;8.606;2023-05-23T00:01:12;99907.78;;;21.32;100.00
21956;BME280;11142;49.930;8.606;2023-05-23T00:03:44;99901.09;;;21.21;100.00
21956;BME280;11142;49.930;8.606;2023-05-23T00:06:13;99902.56;;;21.07;100.00
21956;BME280;11142;49.930;8.606;2023-05-23T00:08:44;99897.28;;;21.07;100.00
21956;BME280;11142;49.930;8.606;2023-05-23T00:11:15;99890.69;;;21.03;100.00
21956;BME280;11142;49.930;8.606;2023-05-23T00:13:45;99883.66;;;20.80;100.00
21956;BME280;11142;49.930;8.606;2023-05-23T00:16:13;99888.63;;;20.50;100.00
21956;BME280;11142;49.930;8.606;2023-05-23T00:18:42;99884.66;;;20.22;100.00
21956;BME280;11142;49.930;8.606;2023-05-23T00:21:16;99889.31;;;20.44;100.00
21956;BME280;11142;49.930;8.606;2023-05-23T00:23:45;99887.16;;;20.32;100.00
21956;BME280;11142;49.930;8.606;2023-05-23T00:26:34;99901.47;;;20.70;100.00
21956;BME280;11142;49.930;8.606;2023-05-23T00:29:02;99894.72;;;20.67;100.00
21956;BME280;11142;49.930;8.606;2023-05-23T00:31:33;99896.44;;;21.23;100.00
21956;BME280;11142;49.930;8.606;2023-05-23T00:34:01;99907.72;;;21.56;100.00
21956;BME280;11142;49.930;8.606;2023-05-23T00:36:32;99910.03;;;21.51;100.00
21956;BME280;11142;49.930;8.606;2023-05-23T00:39:03;99903.63;;;21.76;100.00
21956;BME280;11142;49.930;8.606;2023-05-23T00:41:32;99907.81;;;22.01;100.00
21956;BME280;11142;49.930;8.606;2023-05-23T00:44:00;99908.22;;;21.90;100.00
21956;BME280;11142;49.930;8.606;2023-05-23T00:46:31;99914.34;;;21.52;100.00
21956;BME280;11142;49.930;8.606;2023-05-23T00:49:00;99904.22;;;21.08;100.00
21956;BME280;11142;49.930;8.606;2023-05-23T00:51:29;99917.78;;;20.65;100.00
21956;BME280;11142;49.930;8.606;2023-05-23T00:53:59;99902.31;;;20.46;100.00
21956;BME280;11142;49.930;8.606;2023-05-23T00:56:27;99911.72;;;20.32;100.00
21956;BME280;11142;49.930;8.606;2023-05-23T00:58:56;99914.53;;;20.39;100.00
21956;BME280;11142;49.930;8.606;2023-05-23T01:01:26;99915.47;;;20.30;100.00
21956;BME280;11142;49.930;8.606;2023-05-23T01:03:55;99912.84;;;20.38;100.00
21956;BME280;11142;49.930;8.606;2023-05-23T01:06:24;99915.00;;;20.50;100.00
21956;BME280;11142;49.930;8.606;2023-05-23T01:08:56;99915.16;;;20.41;100.00
21956;BME280;11142;49.930;8.606;2023-05-23T01:11:34;99919.44;;;20.50;100.00
21956;BME280;11142;49.930;8.606;2023-05-23T01:14:06;99915.84;;;20.51;100.00
21956;BME280;11142;49.930;8.606;2023-05-23T01:16:38;99920.41;;;20.33;100.00
21956;BME280;11142;49.930;8.606;2023-05-23T01:19:12;99923.91;;;20.41;100.00
21956;BME280;11142;49.930;8.606;2023-05-23T01:21:44;99926.69;;;20.32;100.00
21956;BME280;11142;49.930;8.606;2023-05-23T01:24:27;99928.84;;;20.52;100.00
21956;BME280;11142;49.930;8.606;2023-05-23T01:27:10;99934.88;;;20.21;100.00
21956;BME280;11142;49.930;8.606;2023-05-23T01:29:50;99932.53;;;20.01;100.00
21956;BME280;11142;49.930;8.606;2023-05-23T01:32:21;99929.41;;;20.06;100.00
21956;BME280;11142;49.930;8.606;2023-05-23T01:34:57;99926.34;;;20.27;100.00
21956;BME280;11142;49.930;8.606;2023-05-23T01:37:26;99926.09;;;19.96;100.00
21956;BME280;11142;49.930;8.606;2023-05-23T01:39:55;99915.41;;;20.05;100.00
21956;BME280;11142;49.930;8.606;2023-05-23T01:42:23;99919.53;;;20.08;100.00
21956;BME280;11142;49.930;8.606;2023-05-23T01:44:55;99919.72;;;20.14;100.00
21956;BME280;11142;49.930;8.606;2023-05-23T01:47:24;99916.25;;;20.06;100.00
21956;BME280;11142;49.930;8.606;2023-05-23T01:49:53;99919.75;;;20.31;100.00
21956;BME280;11142;49.930;8.606;2023-05-23T01:52:21;99926.88;;;20.62;100.00
21956;BME280;11142;49.930;8.606;2023-05-23T01:54:50;99934.78;;;20.71;100.00
21956;BME280;11142;49.930;8.606;2023-05-23T01:57:18;99942.59;;;21.35;100.00
21956;BME280;11142;49.930;8.606;2023-05-23T01:59:46;99941.66;;;21.75;100.00
21956;BME280;11142;49.930;8.606;2023-05-23T02:02:16;99951.47;;;21.97;100.00
21956;BME280;11142;49.930;8.606;2023-05-23T02:04:44;99956.28;;;21.94;100.00
21956;BME280;11142;49.930;8.606;2023-05-23T02:07:12;99958.94;;;21.39;100.00
21956;BME280;11142;49.930;8.606;2023-05-23T02:09:40;99952.34;;;20.13;100.00
21956;BME280;11142;49.930;8.606;2023-05-23T02:12:11;99945.69;;;20.01;100.00
21956;BME280;11142;49.930;8.606;2023-05-23T02:14:39;99942.59;;;20.06;100.00
21956;BME280;11142;49.930;8.606;2023-05-23T02:17:08;99948.28;;;19.77;100.00
21956;BME280;11142;49.930;8.606;2023-05-23T02:19:38;99945.97;;;19.74;100.00
21956;BME280;11142;49.930;8.606;2023-05-23T02:22:06;99952.56;;;19.78;100.00
21956;BME280;11142;49.930;8.606;2023-05-23T02:24:35;99945.31;;;19.72;100.00
21956;BME280;11142;49.930;8.606;2023-05-23T02:27:04;99950.09;;;19.43;100.00
21956;BME280;11142;49.930;8.606;2023-05-23T02:29:32;99953.81;;;19.66;100.00
21956;BME280;11142;49.930;8.606;2023-05-23T02:32:01;99959.91;;;19.67;100.00
21956;BME280;11142;49.930;8.606;2023-05-23T02:34:29;99961.41;;;19.69;100.00
21956;BME280;11142;49.930;8.606;2023-05-23T02:37:00;99961.44;;;19.85;100.00
21956;BME280;11142;49.930;8.606;2023-05-23T02:39:28;99973.97;;;19.83;100.00
21956;BME280;11142;49.930;8.606;2023-05-23T02:41:56;99972.94;;;19.76;100.00
21956;BME280;11142;49.930;8.606;2023-05-23T02:44:25;99980.66;;;19.70;100.00
21956;BME280;11142;49.930;8.606;2023-05-23T02:46:53;99982.19;;;19.80;100.00
21956;BME280;11142;49.930;8.606;2023-05-23T02:49:21;99982.28;;;19.63;100.00
21956;BME280;11142;49.930;8.606;2023-05-23T02:51:53;99990.72;;;19.74;100.00
21956;BME280;11142;49.930;8.606;2023-05-23T02:54:22;99982.16;;;19.72;100.00
21956;BME280;11142;49.930;8.606;2023-05-23T02:56:50;99991.88;;;19.80;100.00
21956;BME280;11142;49.930;8.606;2023-05-23T02:59:21;99992.78;;;19.96;100.00
21956;BME280;11142;49.930;8.606;2023-05-23T03:01:49;99992.72;;;19.80;100.00
21956;BME280;11142;49.930;8.606;2023-05-23T03:04:17;99988.44;;;19.79;100.00
21956;BME280;11142;49.930;8.606;2023-05-23T03:06:46;99984.56;;;19.91;100.00
21956;BME280;11142;49.930;8.606;2023-05-23T03:09:14;99990.31;;;19.61;100.00
21956;BME280;11142;49.930;8.606;2023-05-23T03:11:44;99983.53;;;19.50;100.00
21956;BME280;11142;49.930;8.606;2023-05-23T03:14:15;99988.66;;;19.60;100.00
21956;BME280;11142;49.930;8.606;2023-05-23T03:16:43;99998.19;;;19.53;100.00
21956;BME280;11142;49.930;8.606;2023-05-23T03:19:11;99992.22;;;19.43;100.00
21956;BME280;11142;49.930;8.606;2023-05-23T03:21:39;99997.47;;;19.43;100.00
21956;BME280;11142;49.930;8.606;2023-05-23T03:24:08;100003.56;;;19.26;100.00
21956;BME280;11142;49.930;8.606;2023-05-23T03:26:36;100004.31;;;19.36;100.00
21956;BME280;11142;49.930;8.606;2023-05-23T03:29:06;100004.38;;;19.18;100.00
21956;BME280;11142;49.930;8.606;2023-05-23T03:31:36;100004.09;;;19.47;100.00
21956;BME280;11142;49.930;8.606;2023-05-23T03:34:04;100003.41;;;19.45;100.00
21956;BME280;11142;49.930;8.606;2023-05-23T03:36:32;100007.31;;;20.08;100.00
21956;BME280;11142;49.930;8.606;2023-05-23T03:39:01;100001.34;;;19.56;100.00
21956;BME280;11142;49.930;8.606;2023-05-23T03:41:29;100004.56;;;19.50;100.00
21956;BME280;11142;49.930;8.606;2023-05-23T03:43:58;100007.28;;;19.67;100.00
21956;BME280;11142;49.930;8.606;2023-05-23T03:46:28;100013.13;;;19.78;100.00
21956;BME280;11142;49.930;8.606;2023-05-23T03:48:59;100013.09;;;19.01;100.00
21956;BME280;11142;49.930;8.606;2023-05-23T03:51:27;100016.78;;;19.08;100.00
21956;BME280;11142;49.930;8.606;2023-05-23T03:53:57;100019.63;;;19.15;100.00
21956;BME280;11142;49.930;8.606;2023-05-23T03:56:25;100022.34;;;18.87;100.00
21956;BME280;11142;49.930;8.606;2023-05-23T03:58:53;100039.03;;;18.78;100.00
21956;BME280;11142;49.930;8.606;2023-05-23T04:01:21;100036.34;;;18.70;100.00
21956;BME280;11142;49.930;8.606;2023-05-23T04:03:51;100055.13;;;18.58;100.00
21956;BME280;11142;49.930;8.606;2023-05-23T04:06:23;100059.19;;;18.42;100.00
21956;BME280;11142;49.930;8.606;2023-05-23T04:08:51;100066.78;;;17.91;100.00
21956;BME280;11142;49.930;8.606;2023-05-23T04:11:19;100065.94;;;18.00;100.00
21956;BME280;11142;49.930;8.606;2023-05-23T04:13:48;100079.50;;;18.50;100.00
21956;BME280;11142;49.930;8.606;2023-05-23T04:16:18;100076.97;;;18.03;100.00
21956;BME280;11142;49.930;8.606;2023-05-23T04:18:48;100075.63;;;18.54;100.00
21956;BME280;11142;49.930;8.606;2023-05-23T04:21:19;100079.38;;;18.69;100.00
21956;BME280;11142;49.930;8.606;2023-05-23T04:24:03;100078.47;;;18.78;100.00
21956;BME280;11142;49.930;8.606;2023-05-23T04:26:31;100081.75;;;18.90;100.00
21956;BME280;11142;49.930;8.606;2023-05-23T04:29:03;100078.25;;;19.25;100.00
21956;BME280;11142;49.930;8.606;2023-05-23T04:31:32;100073.41;;;19.38;100.00
21956;BME280;11142;49.930;8.606;2023-05-23T04:34:01;100083.00;;;19.03;100.00
21956;BME280;11142;49.930;8.606;2023-05-23T04:36:36;100082.25;;;18.76;100.00
21956;BME280;11142;49.930;8.606;2023-05-23T04:39:06;100086.81;;;18.56;100.00
21956;BME280;11142;49.930;8.606;2023-05-23T04:41:40;100073.28;;;18.51;100.00
21956;BME280;11142;49.930;8.606;2023-05-23T04:44:19;100083.06;;;18.04;100.00
21956;BME280;11142;49.930;8.606;2023-05-23T04:47:00;100087.59;;;18.39;100.00
21956;BME280;11142;49.930;8.606;2023-05-23T04:49:47;100087.50;;;18.76;100.00
21956;BME280;11142;49.930;8.606;2023-05-23T04:52:16;100093.97;;;18.64;100.00
21956;BME280;11142;49.930;8.606;2023-05-23T04:54:46;100092.16;;;18.82;100.00
21956;BME280;11142;49.930;8.606;2023-05-23T04:57:14;100097.59;;;18.80;100.00
21956;BME280;11142;49.930;8.606;2023-05-23T04:59:42;100097.22;;;18.48;100.00
21956;BME280;11142;49.930;8.606;2023-05-23T05:02:10;100100.41;;;18.69;100.00
21956;BME280;11142;49.930;8.606;2023-05-23T05:04:38;100101.88;;;18.27;100.00
21956;BME280;11142;49.930;8.606;2023-05-23T05:07:06;100097.63;;;18.43;100.00
21956;BME280;11142;49.930;8.606;2023-05-23T05:09:36;100100.97;;;18.45;100.00
21956;BME280;11142;49.930;8.606;2023-05-23T05:12:04;100107.28;;;18.52;100.00
21956;BME280;11142;49.930;8.606;2023-05-23T05:14:32;100109.19;;;18.60;100.00
21956;BME280;11142;49.930;8.606;2023-05-23T05:17:00;100110.38;;;18.11;100.00
21956;BME280;11142;49.930;8.606;2023-05-23T05:19:39;100111.13;;;18.03;100.00
21956;BME280;11142;49.930;8.606;2023-05-23T05:22:07;100120.50;;;18.70;100.00
21956;BME280;11142;49.930;8.606;2023-05-23T05:24:39;100114.09;;;18.73;100.00
21956;BME280;11142;49.930;8.606;2023-05-23T05:27:08;100123.34;;;18.77;100.00
21956;BME280;11142;49.930;8.606;2023-05-23T05:29:37;100117.03;;;18.87;100.00
21956;BME280;11142;49.930;8.606;2023-05-23T05:32:05;100129.25;;;18.61;100.00
21956;BME280;11142;49.930;8.606;2023-05-23T05:34:35;100128.06;;;18.73;100.00
21956;BME280;11142;49.930;8.606;2023-05-23T05:37:05;100130.00;;;18.44;100.00
21956;BME280;11142;49.930;8.606;2023-05-23T05:39:33;100136.66;;;18.93;100.00
21956;BME280;11142;49.930;8.606;2023-05-23T05:42:03;100143.19;;;19.06;100.00
21956;BME280;11142;49.930;8.606;2023-05-23T05:44:32;100138.50;;;19.97;100.00
21956;BME280;11142;49.930;8.606;2023-05-23T05:47:00;100139.03;;;20.00;100.00
21956;BME280;11142;49.930;8.606;2023-05-23T05:49:29;100143.22;;;19.42;100.00
21956;BME280;11142;49.930;8.606;2023-05-23T05:51:57;100152.09;;;20.36;100.00
21956;BME280;11142;49.930;8.606;2023-05-23T05:54:26;100150.69;;;19.98;100.00
21956;BME280;11142;49.930;8.606;2023-05-23T05:56:53;100155.59;;;21.02;100.00
21956;BME280;11142;49.930;8.606;2023-05-23T05:59:25;100155.81;;;21.33;100.00
21956;BME280;11142;49.930;8.606;2023-05-23T06:01:53;100160.78;;;20.10;100.00
21956;BME280;11142;49.930;8.606;2023-05-23T06:04:22;100167.31;;;19.73;100.00
21956;BME280;11142;49.930;8.606;2023-05-23T06:06:50;100172.34;;;19.40;100.00
21956;BME280;11142;49.930;8.606;2023-05-23T06:09:19;100176.19;;;19.19;100.00
21956;BME280;11142;49.930;8.606;2023-05-23T06:11:47;100178.66;;;19.38;100.00
21956;BME280;11142;49.930;8.606;2023-05-23T06:14:15;100176.94;;;19.29;100.00
21956;BME280;11142;49.930;8.606;2023-05-23T06:16:47;100171.16;;;19.07;100.00
21956;BME280;11142;49.930;8.606;2023-05-23T06:19:15;100181.31;;;19.02;100.00
21956;BME280;11142;49.930;8.606;2023-05-23T06:21:43;100177.69;;;19.03;100.00
21956;BME280;11142;49.930;8.606;2023-05-23T06:24:12;100190.41;;;19.08;100.00
21956;BME280;11142;49.930;8.606;2023-05-23T06:26:40;100185.44;;;20.01;100.00
21956;BME280;11142;49.930;8.606;2023-05-23T06:29:08;100187.59;;;20.57;100.00
21956;BME280;11142;49.930;8.606;2023-05-23T06:31:36;100196.13;;;19.39;100.00
21956;BME280;11142;49.930;8.606;2023-05-23T06:34:06;100191.09;;;20.06;100.00
21956;BME280;11142;49.930;8.606;2023-05-23T06:36:34;100192.28;;;20.12;100.00
21956;BME280;11142;49.930;8.606;2023-05-23T06:39:02;100194.56;;;20.75;100.00
21956;BME280;11142;49.930;8.606;2023-05-23T06:41:31;100193.97;;;20.21;100.00
21956;BME280;11142;49.930;8.606;2023-05-23T06:44:01;100196.28;;;19.37;100.00
21956;BME280;11142;49.930;8.606;2023-05-23T06:46:30;100183.72;;;20.10;100.00
21956;BME280;11142;49.930;8.606;2023-05-23T06:48:58;100196.84;;;18.69;100.00
21956;BME280;11142;49.930;8.606;2023-05-23T06:51:43;100198.34;;;19.43;100.00
21956;BME280;11142;49.930;8.606;2023-05-23T06:54:13;100190.88;;;20.26;100.00
21956;BME280;11142;49.930;8.606;2023-05-23T06:56:42;100186.69;;;19.89;100.00
21956;BME280;11142;49.930;8.606;2023-05-23T06:59:10;100197.88;;;20.17;100.00
21956;BME280;11142;49.930;8.606;2023-05-23T07:01:39;100195.59;;;20.74;100.00
21956;BME280;11142;49.930;8.606;2023-05-23T07:04:08;100189.41;;;19.97;100.00
21956;BME280;11142;49.930;8.606;2023-05-23T07:06:39;100208.94;;;19.69;100.00
21956;BME280;11142;49.930;8.606;2023-05-23T07:09:08;100201.94;;;20.03;100.00
21956;BME280;11142;49.930;8.606;2023-05-23T07:11:38;100200.34;;;20.70;100.00
21956;BME280;11142;49.930;8.606;2023-05-23T07:14:08;100206.66;;;20.93;100.00
21956;BME280;11142;49.930;8.606;2023-05-23T07:16:43;100215.91;;;21.55;99.22
21956;BME280;11142;49.930;8.606;2023-05-23T07:19:11;100211.38;;;21.15;100.00
21956;BME280;11142;49.930;8.606;2023-05-23T07:21:44;100212.75;;;21.36;100.00
21956;BME280;11142;49.930;8.606;2023-05-23T07:24:16;100213.59;;;20.94;100.00
21956;BME280;11142;49.930;8.606;2023-05-23T07:26:44;100216.44;;;20.59;100.00
21956;BME280;11142;49.930;8.606;2023-05-23T07:29:13;100213.91;;;21.41;100.00
21956;BME280;11142;49.930;8.606;2023-05-23T07:31:46;100223.88;;;21.05;100.00
21956;BME280;11142;49.930;8.606;2023-05-23T07:34:14;100211.19;;;21.09;100.00
21956;BME280;11142;49.930;8.606;2023-05-23T07:36:54;100211.09;;;21.43;100.00
21956;BME280;11142;49.930;8.606;2023-05-23T07:39:26;100208.00;;;22.04;94.18
21956;BME280;11142;49.930;8.606;2023-05-23T07:41:56;100193.91;;;23.28;84.96
21956;BME280;11142;49.930;8.606;2023-05-23T07:44:25;100192.06;;;23.97;78.88
21956;BME280;11142;49.930;8.606;2023-05-23T07:46:53;100195.25;;;21.51;92.82
21956;BME280;11142;49.930;8.606;2023-05-23T07:49:22;100211.31;;;21.90;96.88
21956;BME280;11142;49.930;8.606;2023-05-23T07:51:51;100202.22;;;20.86;100.00
21956;BME280;11142;49.930;8.606;2023-05-23T07:54:19;100205.00;;;22.62;89.45
21956;BME280;11142;49.930;8.606;2023-05-23T07:56:53;100206.94;;;23.15;83.83
21956;BME280;11142;49.930;8.606;2023-05-23T07:59:23;100210.75;;;23.80;78.27
21956;BME280;11142;49.930;8.606;2023-05-23T08:01:53;100225.25;;;24.07;75.76
21956;BME280;11142;49.930;8.606;2023-05-23T08:04:24;100220.31;;;23.44;76.13
21956;BME280;11142;49.930;8.606;2023-05-23T08:06:53;100219.88;;;23.33;77.77
21956;BME280;11142;49.930;8.606;2023-05-23T08:09:29;100222.69;;;21.98;87.98
21956;BME280;11142;49.930;8.606;2023-05-23T08:11:59;100211.94;;;22.08;93.09
21956;BME280;11142;49.930;8.606;2023-05-23T08:14:28;100233.44;;;22.68;83.95
21956;BME280;11142;49.930;8.606;2023-05-23T08:17:23;100224.66;;;21.72;95.78
21956;BME280;11142;49.930;8.606;2023-05-23T08:19:53;100231.13;;;22.73;89.23
21956;BME280;11142;49.930;8.606;2023-05-23T08:22:21;100221.06;;;21.97;92.58
21956;BME280;11142;49.930;8.606;2023-05-23T08:24:49;100216.56;;;21.98;93.69
21956;BME280;11142;49.930;8.606;2023-05-23T08:27:20;100227.50;;;22.66;89.65
21956;BME280;11142;49.930;8.606;2023-05-23T08:29:53;100223.31;;;21.28;100.00
21956;BME280;11142;49.930;8.606;2023-05-23T08:32:21;100216.38;;;22.07;96.65
21956;BME280;11142;49.930;8.606;2023-05-23T08:34:50;100216.66;;;22.45;92.04
21956;BME280;11142;49.930;8.606;2023-05-23T08:37:18;100215.22;;;21.37;100.00
21956;BME280;11142;49.930;8.606;2023-05-23T08:39:48;100220.91;;;21.08;100.00
21956;BME280;11142;49.930;8.606;2023-05-23T08:42:39;100222.75;;;21.16;100.00
21956;BME280;11142;49.930;8.606;2023-05-23T08:45:09;100219.88;;;22.00;94.49
21956;BME280;11142;49.930;8.606;2023-05-23T08:47:38;100224.00;;;21.70;97.21
21956;BME280;11142;49.930;8.606;2023-05-23T08:50:11;100216.19;;;21.28;100.00
21956;BME280;11142;49.930;8.606;2023-05-23T08:52:42;100229.47;;;22.72;91.72
21956;BME280;11142;49.930;8.606;2023-05-23T08:55:11;100219.03;;;21.59;99.85
21956;BME280;11142;49.930;8.606;2023-05-23T08:57:41;100221.31;;;21.38;99.14
21956;BME280;11142;49.930;8.606;2023-05-23T09:00:26;100217.69;;;22.28;92.24
21956;BME280;11142;49.930;8.606;2023-05-23T09:02:55;100226.59;;;22.27;88.79
21956;BME280;11142;49.930;8.606;2023-05-23T09:05:59;100227.75;;;21.27;97.81
21956;BME280;11142;49.930;8.606;2023-05-23T09:08:29;100234.25;;;21.97;94.02
21956;BME280;11142;49.930;8.606;2023-05-23T09:10:58;100235.72;;;21.67;100.00
21956;BME280;11142;49.930;8.606;2023-05-23T09:13:32;100237.81;;;22.45;89.72
21956;BME280;11142;49.930;8.606;2023-05-23T09:16:06;100239.72;;;22.59;89.15
21956;BME280;11142;49.930;8.606;2023-05-23T09:18:41;100249.59;;;24.11;75.84
21956;BME280;11142;49.930;8.606;2023-05-23T09:21:13;100251.00;;;23.08;81.51
21956;BME280;11142;49.930;8.606;2023-05-23T09:23:53;100238.78;;;22.99;85.76
21956;BME280;11142;49.930;8.606;2023-05-23T09:26:22;100251.28;;;23.66;80.34
21956;BME280;11142;49.930;8.606;2023-05-23T09:28:52;100241.81;;;22.24;88.79
21956;BME280;11142;49.930;8.606;2023-05-23T09:31:25;100243.38;;;22.66;86.64
21956;BME280;11142;49.930;8.606;2023-05-23T09:33:56;100245.81;;;23.14;82.51
21956;BME280;11142;49.930;8.606;2023-05-23T09:36:27;100247.28;;;22.15;89.60
21956;BME280;11142;49.930;8.606;2023-05-23T09:38:56;100243.97;;;21.72;90.56
21956;BME280;11142;49.930;8.606;2023-05-23T09:41:29;100236.84;;;21.33;99.75
21956;BME280;11142;49.930;8.606;2023-05-23T09:43:59;100243.47;;;21.53;97.28
21956;BME280;11142;49.930;8.606;2023-05-23T09:46:33;100240.00;;;20.94;100.00
21956;BME280;11142;49.930;8.606;2023-05-23T09:49:13;100235.59;;;20.69;100.00
21956;BME280;11142;49.930;8.606;2023-05-23T09:51:41;100242.97;;;20.99;100.00
21956;BME280;11142;49.930;8.606;2023-05-23T09:54:11;100251.84;;;20.82;100.00
21956;BME280;11142;49.930;8.606;2023-05-23T09:56:39;100248.28;;;20.32;100.00
21956;BME280;11142;49.930;8.606;2023-05-23T09:59:11;100249.34;;;20.81;100.00
21956;BME280;11142;49.930;8.606;2023-05-23T10:01:41;100243.66;;;21.59;100.00
21956;BME280;11142;49.930;8.606;2023-05-23T10:04:10;100250.16;;;22.52;91.47
21956;BME280;11142;49.930;8.606;2023-05-23T10:06:40;100246.81;;;21.05;100.00
21956;BME280;11142;49.930;8.606;2023-05-23T10:09:11;100244.47;;;21.84;93.00
21956;BME280;11142;49.930;8.606;2023-05-23T10:14:29;100254.28;;;22.71;83.77
21956;BME280;11142;49.930;8.606;2023-05-23T10:16:58;100253.53;;;21.57;95.43
21956;BME280;11142;49.930;8.606;2023-05-23T10:19:30;100256.28;;;22.53;86.14
21956;BME280;11142;49.930;8.606;2023-05-23T10:22:05;100262.13;;;23.57;75.74
21956;BME280;11142;49.930;8.606;2023-05-23T10:24:34;100257.25;;;22.76;77.94
21956;BME280;11142;49.930;8.606;2023-05-23T10:27:04;100255.72;;;23.20;74.70
21956;BME280;11142;49.930;8.606;2023-05-23T10:29:35;100255.97;;;24.24;69.83
21956;BME280;11142;49.930;8.606;2023-05-23T10:32:03;100262.28;;;25.11;66.61
21956;BME280;11142;49.930;8.606;2023-05-23T10:34:33;100258.59;;;24.24;66.37
21956;BME280;11142;49.930;8.606;2023-05-23T10:37:04;100259.66;;;22.94;76.25
21956;BME280;11142;49.930;8.606;2023-05-23T10:39:35;100254.09;;;21.93;88.10
21956;BME280;11142;49.930;8.606;2023-05-23T10:42:12;100255.19;;;21.83;91.89
21956;BME280;11142;49.930;8.606;2023-05-23T10:44:45;100260.69;;;22.05;88.55
21956;BME280;11142;49.930;8.606;2023-05-23T10:47:13;100265.59;;;21.76;96.03
21956;BME280;11142;49.930;8.606;2023-05-23T10:49:53;100267.91;;;21.71;88.65
21956;BME280;11142;49.930;8.606;2023-05-23T10:52:22;100266.09;;;21.63;89.82
21956;BME280;11142;49.930;8.606;2023-05-23T10:54:52;100263.22;;;22.62;84.30
21956;BME280;11142;49.930;8.606;2023-05-23T10:57:24;100276.16;;;22.41;84.28
21956;BME280;11142;49.930;8.606;2023-05-23T10:59:55;100272.16;;;22.61;82.14
21956;BME280;11142;49.930;8.606;2023-05-23T11:02:24;100264.22;;;22.53;85.11
21956;BME280;11142;49.930;8.606;2023-05-23T11:07:38;100266.75;;;21.73;93.84
21956;BME280;11142;49.930;8.606;2023-05-23T11:10:08;100273.19;;;21.79;91.37
21956;BME280;11142;49.930;8.606;2023-05-23T11:12:37;100278.00;;;22.24;86.27
21956;BME280;11142;49.930;8.606;2023-05-23T11:15:21;100272.31;;;23.37;78.98
21956;BME280;11142;49.930;8.606;2023-05-23T11:17:50;100273.53;;;22.33;85.50
21956;BME280;11142;49.930;8.606;2023-05-23T11:20:19;100276.22;;;22.16;88.43
21956;BME280;11142;49.930;8.606;2023-05-23T11:22:52;100276.50;;;23.01;80.93
21956;BME280;11142;49.930;8.606;2023-05-23T11:25:20;100274.84;;;23.61;79.83
21956;BME280;11142;49.930;8.606;2023-05-23T11:28:06;100282.84;;;23.22;78.06
21956;BME280;11142;49.930;8.606;2023-05-23T11:30:36;100279.66;;;22.96;81.32
21956;BME280;11142;49.930;8.606;2023-05-23T11:33:06;100280.13;;;22.37;88.12
21956;BME280;11142;49.930;8.606;2023-05-23T11:35:36;100280.69;;;22.87;84.82
21956;BME280;11142;49.930;8.606;2023-05-23T11:38:04;100274.06;;;22.04;91.93
21956;BME280;11142;49.930;8.606;2023-05-23T11:40:33;100287.53;;;22.49;88.06
21956;BME280;11142;49.930;8.606;2023-05-23T11:43:03;100281.97;;;22.28;90.84
21956;BME280;11142;49.930;8.606;2023-05-23T11:45:31;100290.63;;;22.77;89.48
21956;BME280;11142;49.930;8.606;2023-05-23T11:48:08;100276.34;;;24.01;77.38
21956;BME280;11142;49.930;8.606;2023-05-23T11:50:44;100279.06;;;25.33;66.49
21956;BME280;11142;49.930;8.606;2023-05-23T11:53:13;100286.72;;;24.63;71.04
21956;BME280;11142;49.930;8.606;2023-05-23T11:55:50;100284.56;;;23.07;79.74
21956;BME280;11142;49.930;8.606;2023-05-23T11:58:19;100287.53;;;23.12;81.28
21956;BME280;11142;49.930;8.606;2023-05-23T12:00:47;100291.34;;;23.71;78.22
21956;BME280;11142;49.930;8.606;2023-05-23T12:03:18;100290.69;;;24.15;75.81
21956;BME280;11142;49.930;8.606;2023-05-23T12:05:46;100287.63;;;24.41;73.56
21956;BME280;11142;49.930;8.606;2023-05-23T12:08:15;100289.66;;;24.68;74.17
21956;BME280;11142;49.930;8.606;2023-05-23T12:10:50;100296.41;;;24.56;73.22
21956;BME280;11142;49.930;8.606;2023-05-23T12:13:22;100295.44;;;25.51;66.15
21956;BME280;11142;49.930;8.606;2023-05-23T12:15:52;100295.00;;;25.69;63.36
21956;BME280;11142;49.930;8.606;2023-05-23T12:18:22;100294.72;;;25.43;63.68
21956;BME280;11142;49.930;8.606;2023-05-23T12:20:50;100298.75;;;23.99;69.62
21956;BME280;11142;49.930;8.606;2023-05-23T12:23:20;100283.91;;;22.50;82.32
21956;BME280;11142;49.930;8.606;2023-05-23T12:25:49;100293.63;;;22.82;80.15
21956;BME280;11142;49.930;8.606;2023-05-23T12:28:19;100295.38;;;23.28;75.65
21956;BME280;11142;49.930;8.606;2023-05-23T12:30:49;100290.75;;;24.59;70.89
21956;BME280;11142;49.930;8.606;2023-05-23T12:33:17;100291.75;;;24.28;72.46
21956;BME280;11142;49.930;8.606;2023-05-23T12:35:47;100290.75;;;23.84;70.40
21956;BME280;11142;49.930;8.606;2023-05-23T12:38:15;100292.72;;;23.28;73.92
21956;BME280;11142;49.930;8.606;2023-05-23T12:40:44;100297.25;;;25.15;67.03
21956;BME280;11142;49.930;8.606;2023-05-23T12:43:14;100289.22;;;23.90;73.02
21956;BME280;11142;49.930;8.606;2023-05-23T12:45:48;100291.03;;;24.64;71.10
21956;BME280;11142;49.930;8.606;2023-05-23T12:48:18;100291.63;;;23.99;72.36
21956;BME280;11142;49.930;8.606;2023-05-23T12:50:48;100296.63;;;23.49;76.27
21956;BME280;11142;49.930;8.606;2023-05-23T12:53:17;100296.03;;;21.96;82.44
21956;BME280;11142;49.930;8.606;2023-05-23T12:55:45;100295.28;;;22.75;80.08
21956;BME280;11142;49.930;8.606;2023-05-23T12:58:14;100296.47;;;22.56;81.71
21956;BME280;11142;49.930;8.606;2023-05-23T13:00:42;100292.09;;;23.26;76.94
21956;BME280;11142;49.930;8.606;2023-05-23T13:03:11;100298.25;;;23.19;78.66
21956;BME280;11142;49.930;8.606;2023-05-23T13:05:40;100287.72;;;22.48;83.71
21956;BME280;11142;49.930;8.606;2023-05-23T13:08:10;100296.97;;;23.15;78.11